createdAt,value
2019-05-12T00:01:35.494Z,4.53
2019-05-12T00:04:08.090Z,3.90
2019-05-12T00:06:38.732Z,4.73
2019-05-12T00:09:14.012Z,5.07
2019-05-12T00:11:48.290Z,5.03
2019-05-12T00:14:23.565Z,6.30
2019-05-12T00:16:54.805Z,5.57
2019-05-12T00:19:24.106Z,6.40
2019-05-12T00:21:55.348Z,6.13
2019-05-12T00:24:27.825Z,6.85
2019-05-12T00:27:00.805Z,5.70
2019-05-12T00:29:30.180Z,6.87
2019-05-12T00:32:05.001Z,7.00
2019-05-12T00:34:35.300Z,6.80
2019-05-12T00:37:08.311Z,6.40
2019-05-12T00:39:42.029Z,7.60
2019-05-12T00:42:13.868Z,7.83
2019-05-12T00:44:43.286Z,8.77
2019-05-12T00:47:12.728Z,8.07
2019-05-12T00:49:42.147Z,9.00
2019-05-12T00:52:11.544Z,9.10
2019-05-12T00:54:40.977Z,9.40
2019-05-12T00:57:11.102Z,9.27
2019-05-12T00:59:44.770Z,7.97
2019-05-12T01:02:18.210Z,8.90
2019-05-12T01:04:49.287Z,7.70
2019-05-12T01:07:19.580Z,7.50
2019-05-12T01:09:49.340Z,7.97
2019-05-12T01:12:19.463Z,8.20
2019-05-12T01:14:54.156Z,7.37
2019-05-12T01:17:28.089Z,7.60
2019-05-12T01:20:00.615Z,7.50
2019-05-12T01:22:31.034Z,7.00
2019-05-12T01:25:01.311Z,6.10
2019-05-12T01:27:34.075Z,6.60
2019-05-12T01:30:05.344Z,6.97
2019-05-12T01:32:40.161Z,6.03
2019-05-12T01:35:12.769Z,6.50
2019-05-12T01:37:42.994Z,7.07
2019-05-12T01:40:12.597Z,6.17
2019-05-12T01:42:41.977Z,5.57
2019-05-12T01:45:12.033Z,5.60
2019-05-12T01:47:43.304Z,5.70
2019-05-12T01:50:13.048Z,5.17
2019-05-12T01:52:42.429Z,5.00
2019-05-12T01:55:18.566Z,5.27
2019-05-12T01:57:48.617Z,4.77
2019-05-12T02:00:22.457Z,4.97
2019-05-12T02:02:59.551Z,5.70
2019-05-12T02:05:29.012Z,5.40
2019-05-12T02:08:02.003Z,4.47
2019-05-12T02:10:32.879Z,4.17
2019-05-12T02:13:02.867Z,5.17
2019-05-12T02:15:32.502Z,5.50
2019-05-12T02:18:03.547Z,6.00
2019-05-12T02:20:38.902Z,4.78
2019-05-12T02:23:09.209Z,5.23
2019-05-12T02:25:39.145Z,4.90
2019-05-12T02:28:12.332Z,5.40
2019-05-12T02:30:42.887Z,4.67
2019-05-12T02:33:15.666Z,5.13
2019-05-12T02:35:44.476Z,4.40
2019-05-12T02:38:20.424Z,4.47
2019-05-12T02:40:51.555Z,3.80
2019-05-12T02:43:24.434Z,3.70
2019-05-12T02:45:56.480Z,4.35
2019-05-12T02:48:30.945Z,4.00
2019-05-12T02:51:05.205Z,3.50
2019-05-12T02:53:35.168Z,4.40
2019-05-12T02:56:05.346Z,3.90
2019-05-12T02:58:38.212Z,3.70
2019-05-12T03:01:10.969Z,3.83
2019-05-12T03:03:44.034Z,3.33
2019-05-12T03:06:15.122Z,3.87
2019-05-12T03:08:45.140Z,4.00
2019-05-12T03:11:15.327Z,4.25
2019-05-12T03:13:45.003Z,3.92
2019-05-12T03:16:21.437Z,4.65
2019-05-12T03:18:54.991Z,4.43
2019-05-12T03:21:24.486Z,4.37
2019-05-12T03:23:55.382Z,4.70
2019-05-12T03:26:25.925Z,4.75
2019-05-12T03:28:56.756Z,4.27
2019-05-12T03:31:31.629Z,4.30
2019-05-12T03:34:00.204Z,5.57
2019-05-12T03:36:34.707Z,4.53
2019-05-12T03:39:04.224Z,5.13
2019-05-12T03:41:35.546Z,4.53
2019-05-12T03:44:07.325Z,4.40
2019-05-12T03:46:45.353Z,4.97
2019-05-12T03:49:15.497Z,5.10
2019-05-12T03:51:54.167Z,4.83
2019-05-12T03:54:24.392Z,5.17
2019-05-12T03:56:55.719Z,4.27
2019-05-12T03:59:25.671Z,5.23
2019-05-12T04:01:55.701Z,4.77
2019-05-12T04:04:29.312Z,4.90
2019-05-12T04:07:05.496Z,4.67
2019-05-12T04:09:35.042Z,4.35
2019-05-12T04:12:05.404Z,5.63
2019-05-12T04:14:34.920Z,4.80
2019-05-12T04:17:05.012Z,5.33
2019-05-12T04:19:36.525Z,4.80
2019-05-12T04:22:05.905Z,5.10
2019-05-12T04:24:35.968Z,5.20
2019-05-12T04:27:05.762Z,4.67
2019-05-12T04:29:35.160Z,5.20
2019-05-12T04:32:05.225Z,5.20
2019-05-12T04:34:36.335Z,4.67
2019-05-12T04:37:14.754Z,4.60
2019-05-12T04:39:45.717Z,4.80
2019-05-12T04:42:16.274Z,4.87
2019-05-12T04:44:45.675Z,4.33
2019-05-12T04:47:16.411Z,4.30
2019-05-12T04:49:45.788Z,4.17
2019-05-12T04:52:19.972Z,5.10
2019-05-12T04:54:57.165Z,4.80
2019-05-12T04:57:28.075Z,4.60
2019-05-12T04:59:57.385Z,5.17
2019-05-12T05:02:26.809Z,4.53
2019-05-12T05:04:56.343Z,4.50
2019-05-12T05:07:26.005Z,5.00
2019-05-12T05:09:55.478Z,5.30
2019-05-12T05:12:24.854Z,5.00
2019-05-12T05:15:01.824Z,5.07
2019-05-12T05:17:31.308Z,5.47
2019-05-12T05:20:00.703Z,5.50
2019-05-12T05:22:33.324Z,6.50
2019-05-12T05:25:04.253Z,5.80
2019-05-12T05:27:34.157Z,4.90
2019-05-12T05:30:04.190Z,5.70
2019-05-12T05:32:34.104Z,5.23
2019-05-12T05:35:07.371Z,5.07
2019-05-12T05:37:39.575Z,5.62
2019-05-12T05:40:08.675Z,5.80
2019-05-12T05:42:44.190Z,5.77
2019-05-12T05:45:19.604Z,6.03
2019-05-12T05:47:45.053Z,5.73
2019-05-12T05:50:24.956Z,6.12
2019-05-12T05:52:54.248Z,6.20
2019-05-12T05:55:24.795Z,5.90
2019-05-12T05:57:54.212Z,5.10
2019-05-12T06:00:26.196Z,5.30
2019-05-12T06:02:55.494Z,5.27
2019-05-12T06:05:30.774Z,5.78
2019-05-12T06:07:57.984Z,6.57
2019-05-12T06:10:35.340Z,6.40
2019-05-12T06:12:58.436Z,7.67
2019-05-12T06:15:29.777Z,6.50
2019-05-12T06:17:59.269Z,3.80
2019-05-12T06:20:28.755Z,4.50
2019-05-12T06:22:58.145Z,4.50
2019-05-12T06:25:44.562Z,5.20
2019-05-12T06:28:01.460Z,4.28
2019-05-12T06:30:30.247Z,3.93
2019-05-12T06:32:59.650Z,4.40
2019-05-12T06:35:30.987Z,4.85
2019-05-12T06:38:01.915Z,4.35
2019-05-12T06:40:40.372Z,4.73
2019-05-12T06:43:04.901Z,4.53
2019-05-12T06:45:41.868Z,4.58
2019-05-12T06:48:07.044Z,4.90
2019-05-12T06:50:38.871Z,5.27
2019-05-12T06:53:08.232Z,5.40
2019-05-12T06:55:39.419Z,5.20
2019-05-12T06:58:08.892Z,5.80
2019-05-12T07:00:39.909Z,5.42
2019-05-12T07:03:09.685Z,5.60
2019-05-12T07:05:42.477Z,5.40
2019-05-12T07:08:10.973Z,5.50
2019-05-12T07:10:44.284Z,4.70
2019-05-12T07:13:14.820Z,4.70
2019-05-12T07:15:44.481Z,5.13
2019-05-12T07:18:17.820Z,5.20
2019-05-12T07:20:47.464Z,5.20
2019-05-12T07:23:19.765Z,5.53
2019-05-12T07:25:48.649Z,5.13
2019-05-12T07:28:19.314Z,5.35
2019-05-12T07:30:49.484Z,5.83
2019-05-12T07:33:19.532Z,4.93
2019-05-12T07:36:00.986Z,5.60
2019-05-12T07:38:26.471Z,5.50
2019-05-12T07:41:00.631Z,4.83
2019-05-12T07:43:30.180Z,4.80
2019-05-12T07:46:07.151Z,4.60
2019-05-12T07:48:33.427Z,5.57
2019-05-12T07:51:04.208Z,5.83
2019-05-12T07:53:34.297Z,5.73
2019-05-12T07:56:04.306Z,6.10
2019-05-12T07:58:34.060Z,7.72
2019-05-12T08:01:07.739Z,5.43
2019-05-12T08:03:37.329Z,5.60
2019-05-12T08:06:08.266Z,6.53
2019-05-12T08:08:44.154Z,6.87
2019-05-12T08:11:09.861Z,5.80
2019-05-12T08:13:40.913Z,6.57
2019-05-12T08:16:10.428Z,6.67
2019-05-12T08:18:41.160Z,7.20
2019-05-12T08:21:10.521Z,7.50
2019-05-12T08:23:40.367Z,6.10
2019-05-12T08:26:16.265Z,6.20
2019-05-12T08:28:44.200Z,6.60
2019-05-12T08:31:14.142Z,6.42
2019-05-12T08:33:43.809Z,6.23
2019-05-12T08:36:16.351Z,7.08
2019-05-12T08:38:46.127Z,7.20
2019-05-12T08:41:16.368Z,7.10
2019-05-12T08:43:53.135Z,7.13
2019-05-12T08:46:20.050Z,6.85
2019-05-12T08:48:51.504Z,7.07
2019-05-12T08:51:25.027Z,7.20
2019-05-12T08:54:02.293Z,6.50
2019-05-12T08:56:33.109Z,7.87
2019-05-12T08:59:04.329Z,7.23
2019-05-12T09:01:35.427Z,8.13
2019-05-12T09:04:13.131Z,7.90
2019-05-12T09:06:43.485Z,7.33
2019-05-12T09:09:15.796Z,7.23
2019-05-12T09:11:54.056Z,7.50
2019-05-12T09:14:25.169Z,7.80
2019-05-12T09:17:02.766Z,7.80
2019-05-12T09:19:33.219Z,7.67
2019-05-12T09:22:07.201Z,9.07
2019-05-12T09:24:33.889Z,9.53
2019-05-12T09:27:08.822Z,7.63
2019-05-12T09:29:39.603Z,8.20
2019-05-12T09:32:14.576Z,8.27
2019-05-12T09:34:52.607Z,8.38
2019-05-12T09:37:20.612Z,7.72
2019-05-12T09:39:53.821Z,8.73
2019-05-12T09:42:30.013Z,8.80
2019-05-12T09:44:59.960Z,8.80
2019-05-12T09:47:31.199Z,9.47
2019-05-12T09:50:00.536Z,8.50
2019-05-12T09:52:32.960Z,9.13
2019-05-12T09:55:04.254Z,8.83
2019-05-12T09:57:40.543Z,10.47
2019-05-12T10:00:06.969Z,9.90
2019-05-12T10:02:37.480Z,10.10
2019-05-12T10:05:08.897Z,11.20
2019-05-12T10:07:44.371Z,10.13
2019-05-12T10:10:14.157Z,10.03
2019-05-12T10:12:50.302Z,11.00
2019-05-12T10:15:18.580Z,11.97
2019-05-12T10:17:49.575Z,11.67
2019-05-12T10:20:21.564Z,13.13
2019-05-12T10:22:50.037Z,16.75
2019-05-12T10:25:23.204Z,12.00
2019-05-12T10:27:53.145Z,12.30
2019-05-12T10:30:23.450Z,13.83
2019-05-12T10:32:53.178Z,15.40
2019-05-12T10:35:26.261Z,12.37
2019-05-12T10:37:53.807Z,12.60
2019-05-12T10:40:23.646Z,12.67
2019-05-12T10:42:54.227Z,11.28
2019-05-12T10:45:25.921Z,12.57
2019-05-12T10:47:55.823Z,12.40
2019-05-12T10:50:27.748Z,13.63
2019-05-12T10:52:57.521Z,12.60
2019-05-12T10:55:27.029Z,13.20
2019-05-12T10:58:01.477Z,12.53
2019-05-12T11:00:30.963Z,12.78
2019-05-12T11:03:01.518Z,13.77
2019-05-12T11:05:33.643Z,12.78
2019-05-12T11:08:06.386Z,12.47
2019-05-12T11:10:35.318Z,13.98
2019-05-12T11:13:08.438Z,14.53
2019-05-12T11:15:39.606Z,14.50
2019-05-12T11:18:14.279Z,14.27
2019-05-12T11:20:47.653Z,14.13
2019-05-12T11:23:18.192Z,14.40
2019-05-12T11:25:49.476Z,14.27
2019-05-12T11:28:20.384Z,13.50
2019-05-12T11:30:53.275Z,12.80
2019-05-12T11:33:25.134Z,14.30
2019-05-12T11:35:57.817Z,15.10
2019-05-12T11:38:27.122Z,14.28
2019-05-12T11:40:57.984Z,16.90
2019-05-12T11:43:29.867Z,15.70
2019-05-12T11:46:00.274Z,13.87
2019-05-12T11:48:30.321Z,16.20
2019-05-12T11:51:00.736Z,14.70
2019-05-12T11:53:32.865Z,15.00
2019-05-12T11:56:07.475Z,15.23
2019-05-12T11:58:34.196Z,16.67
2019-05-12T12:01:08.250Z,14.33
2019-05-12T12:03:37.055Z,14.03
2019-05-12T12:06:06.816Z,12.63
2019-05-12T12:08:37.418Z,13.90
2019-05-12T12:11:10.438Z,13.80
2019-05-12T12:13:40.225Z,14.18
2019-05-12T12:16:11.408Z,11.77
2019-05-12T12:18:46.703Z,13.20
2019-05-12T12:21:14.213Z,12.93
2019-05-12T12:23:48.738Z,15.37
2019-05-12T12:26:30.310Z,13.45
2019-05-12T12:28:59.185Z,17.00
2019-05-12T12:31:35.758Z,15.95
2019-05-12T12:34:02.268Z,15.67
2019-05-12T12:36:35.609Z,14.50
2019-05-12T12:39:06.601Z,16.77
2019-05-12T12:41:35.989Z,13.73
2019-05-12T12:44:05.730Z,14.73
2019-05-12T12:46:35.237Z,16.03
2019-05-12T12:49:08.569Z,16.10
2019-05-12T12:51:37.097Z,15.30
2019-05-12T12:54:06.495Z,15.57
2019-05-12T12:56:35.962Z,13.70
2019-05-12T12:59:10.168Z,14.43
2019-05-12T13:01:39.369Z,15.20
2019-05-12T13:04:08.846Z,14.07
2019-05-12T13:06:39.085Z,14.47
2019-05-12T13:09:21.991Z,13.23
2019-05-12T13:11:41.507Z,13.97
2019-05-12T13:14:13.339Z,13.40
2019-05-12T13:16:43.711Z,13.93
2019-05-12T13:19:17.078Z,13.60
2019-05-12T13:21:46.576Z,13.17
2019-05-12T13:24:17.372Z,12.15
2019-05-12T13:26:46.857Z,11.83
2019-05-12T13:29:19.008Z,13.32
2019-05-12T13:31:48.577Z,12.00
2019-05-12T13:34:18.806Z,11.75
2019-05-12T13:36:49.389Z,12.43
2019-05-12T13:39:18.908Z,13.23
2019-05-12T13:41:50.279Z,13.13
2019-05-12T13:44:20.335Z,13.27
2019-05-12T13:46:56.997Z,12.63
2019-05-12T13:49:21.622Z,12.90
2019-05-12T13:51:53.717Z,13.03
2019-05-12T13:54:26.134Z,13.13
2019-05-12T13:56:54.361Z,13.40
2019-05-12T13:59:25.540Z,13.83
2019-05-12T14:01:55.185Z,13.30
2019-05-12T14:04:27.681Z,10.80
2019-05-12T14:06:56.348Z,11.67
2019-05-12T14:09:26.139Z,11.37
2019-05-12T14:11:55.537Z,11.17
2019-05-12T14:14:25.001Z,10.60
2019-05-12T14:16:59.439Z,10.87
2019-05-12T14:19:30.386Z,10.10
2019-05-12T14:21:59.713Z,10.75
2019-05-12T14:24:33.267Z,10.55
2019-05-12T14:27:00.842Z,10.67
2019-05-12T14:29:33.419Z,10.53
2019-05-12T14:32:05.273Z,9.70
2019-05-12T14:34:42.883Z,10.90
2019-05-12T14:37:14.028Z,10.77
2019-05-12T14:39:50.422Z,9.78
2019-05-12T14:42:20.121Z,9.87
2019-05-12T14:44:49.883Z,9.30
2019-05-12T14:47:27.917Z,10.90
2019-05-12T14:49:54.251Z,10.83
2019-05-12T14:52:27.278Z,10.50
2019-05-12T14:54:58.125Z,10.90
2019-05-12T14:57:29.310Z,10.15
2019-05-12T14:59:59.513Z,12.00
2019-05-12T15:02:29.596Z,11.40
2019-05-12T15:05:05.661Z,11.40
2019-05-12T15:07:33.703Z,11.73
2019-05-12T15:10:08.446Z,10.58
2019-05-12T15:12:34.152Z,11.33
2019-05-12T15:15:09.179Z,11.17
2019-05-12T15:17:36.413Z,11.20
2019-05-12T15:20:10.560Z,14.10
2019-05-12T15:22:50.928Z,12.03
2019-05-12T15:25:14.599Z,11.48
2019-05-12T15:27:48.209Z,10.95
2019-05-12T15:30:23.308Z,10.40
2019-05-12T15:32:50.797Z,10.50
2019-05-12T15:35:24.105Z,11.78
2019-05-12T15:37:56.870Z,12.80
2019-05-12T15:40:29.530Z,15.58
2019-05-12T15:43:00.441Z,12.63
2019-05-12T15:45:34.322Z,20.85
2019-05-12T15:48:04.296Z,12.50
2019-05-12T15:50:34.291Z,15.00
2019-05-12T15:53:04.313Z,11.17
2019-05-12T15:55:35.469Z,10.30
2019-05-12T15:58:09.009Z,11.10
2019-05-12T16:00:38.728Z,10.87
2019-05-12T16:03:08.404Z,11.63
2019-05-12T16:05:37.796Z,12.20
2019-05-12T16:08:07.660Z,11.55
2019-05-12T16:10:37.436Z,9.80
2019-05-12T16:13:06.836Z,10.87
2019-05-12T16:15:36.583Z,10.30
2019-05-12T16:18:09.844Z,11.10
2019-05-12T16:20:37.778Z,11.20
2019-05-12T16:23:07.600Z,10.60
2019-05-12T16:25:38.688Z,12.57
2019-05-12T16:28:15.563Z,11.70
2019-05-12T16:30:40.408Z,13.00
2019-05-12T16:33:20.457Z,11.10
2019-05-12T16:35:50.561Z,11.27
2019-05-12T16:38:20.487Z,13.13
2019-05-12T16:40:50.235Z,15.40
2019-05-12T16:43:19.800Z,15.37
2019-05-12T16:45:54.461Z,11.40
2019-05-12T16:48:30.429Z,12.30
2019-05-12T16:50:57.646Z,12.77
2019-05-12T16:53:31.290Z,11.00
2019-05-12T16:56:05.834Z,12.43
2019-05-12T16:58:35.521Z,12.40
2019-05-12T17:01:07.620Z,12.85
2019-05-12T17:03:38.813Z,13.17
2019-05-12T17:06:08.833Z,13.20
2019-05-12T17:08:44.829Z,12.53
2019-05-12T17:11:26.466Z,11.03
2019-05-12T17:13:55.608Z,12.90
2019-05-12T17:16:18.389Z,14.68
2019-05-12T17:18:53.342Z,11.57
2019-05-12T17:21:24.645Z,11.80
2019-05-12T17:23:55.286Z,11.70
2019-05-12T17:26:27.032Z,11.90
2019-05-12T17:28:57.485Z,12.43
2019-05-12T17:31:27.586Z,12.27
2019-05-12T17:34:00.203Z,12.43
2019-05-12T17:36:34.515Z,13.57
2019-05-12T17:39:06.622Z,13.00
2019-05-12T17:41:42.628Z,14.80
2019-05-12T17:44:13.409Z,15.08
2019-05-12T17:46:44.176Z,13.90
2019-05-12T17:49:15.773Z,12.47
2019-05-12T17:51:46.594Z,12.93
2019-05-12T17:54:21.645Z,13.62
2019-05-12T17:56:48.730Z,15.47
2019-05-12T17:59:27.573Z,15.15
2019-05-12T18:01:53.737Z,19.80
2019-05-12T18:04:26.486Z,25.17
2019-05-12T18:06:55.979Z,18.23
2019-05-12T18:09:25.361Z,14.87
2019-05-12T18:11:56.389Z,14.27
2019-05-12T18:14:28.630Z,14.20
2019-05-12T18:17:08.168Z,13.63
2019-05-12T18:19:33.749Z,13.70
2019-05-12T18:22:09.124Z,15.27
2019-05-12T18:24:40.878Z,14.43
2019-05-12T18:27:09.556Z,15.57
2019-05-12T18:29:40.713Z,20.23
2019-05-12T18:32:13.623Z,20.00
2019-05-12T18:34:44.582Z,19.73
2019-05-12T18:37:16.735Z,21.00
2019-05-12T18:39:46.249Z,16.80
2019-05-12T18:42:19.452Z,17.95
2019-05-12T18:44:48.920Z,18.60
2019-05-12T18:47:23.439Z,16.90
2019-05-12T18:49:53.817Z,16.30
2019-05-12T18:52:29.160Z,15.08
2019-05-12T18:54:57.328Z,13.10
2019-05-12T18:57:30.569Z,11.55
2019-05-12T19:00:04.208Z,13.37
2019-05-12T19:02:33.453Z,12.53
2019-05-12T19:05:04.450Z,12.83
2019-05-12T19:07:39.732Z,12.05
2019-05-12T19:10:07.703Z,15.23
2019-05-12T19:12:37.120Z,12.95
2019-05-12T19:15:10.263Z,12.60
2019-05-12T19:17:39.446Z,13.63
2019-05-12T19:20:13.408Z,14.73
2019-05-12T19:22:48.216Z,14.77
2019-05-12T19:25:15.312Z,14.90
2019-05-12T19:27:46.996Z,14.57
2019-05-12T19:30:19.217Z,14.60
2019-05-12T19:32:51.814Z,13.40
2019-05-12T19:35:23.927Z,14.43
2019-05-12T19:37:54.817Z,13.60
2019-05-12T19:40:24.462Z,12.33
2019-05-12T19:43:01.966Z,13.37
2019-05-12T19:45:25.163Z,13.20
2019-05-12T19:47:57.554Z,12.97
2019-05-12T19:50:28.255Z,14.50
2019-05-12T19:52:58.725Z,13.77
2019-05-12T19:55:30.599Z,14.27
2019-05-12T19:58:10.783Z,13.40
2019-05-12T20:00:34.609Z,12.80
2019-05-12T20:03:08.559Z,13.73
2019-05-12T20:05:37.080Z,13.55
2019-05-12T20:08:08.378Z,13.20
2019-05-12T20:10:44.856Z,14.27
2019-05-12T20:13:13.698Z,15.90
2019-05-12T20:15:43.835Z,15.60
2019-05-12T20:18:14.817Z,16.00
2019-05-12T20:20:47.013Z,16.87
2019-05-12T20:23:19.604Z,15.10
2019-05-12T20:25:56.022Z,13.33
2019-05-12T20:28:26.615Z,14.43
2019-05-12T20:31:00.926Z,16.83
2019-05-12T20:33:29.727Z,13.43
2019-05-12T20:36:00.555Z,12.55
2019-05-12T20:38:34.437Z,13.30
2019-05-12T20:41:04.838Z,16.33
2019-05-12T20:43:41.301Z,17.37
2019-05-12T20:46:15.829Z,13.70
2019-05-12T20:48:41.037Z,16.07
2019-05-12T20:51:15.461Z,16.63
2019-05-12T20:53:43.628Z,15.43
2019-05-12T20:56:20.012Z,17.20
2019-05-12T20:58:46.498Z,17.13
2019-05-12T21:01:20.234Z,17.05
2019-05-12T21:03:51.006Z,21.20
2019-05-12T21:06:23.620Z,20.83
2019-05-12T21:08:54.293Z,20.77
2019-05-12T21:11:24.973Z,20.80
2019-05-12T21:14:01.055Z,21.20
2019-05-12T21:16:34.313Z,21.10
2019-05-12T21:19:07.529Z,19.77
2019-05-12T21:21:34.070Z,21.30
2019-05-12T21:24:05.033Z,21.50
2019-05-12T21:26:37.935Z,20.73
2019-05-12T21:29:06.376Z,20.97
2019-05-12T21:31:35.786Z,23.40
2019-05-12T21:34:15.114Z,21.70
2019-05-12T21:36:39.668Z,23.27
2019-05-12T21:39:10.376Z,21.62
2019-05-12T21:41:51.910Z,22.20
2019-05-12T21:44:24.528Z,21.25
2019-05-12T21:47:03.771Z,21.40
2019-05-12T21:49:26.527Z,21.57
2019-05-12T21:52:02.869Z,20.83
2019-05-12T21:54:29.567Z,22.10
2019-05-12T21:56:59.014Z,21.90
2019-05-12T21:59:35.370Z,21.70
2019-05-12T22:02:00.540Z,21.90
2019-05-12T22:04:35.274Z,22.35
2019-05-12T22:07:03.975Z,19.80
2019-05-12T22:09:41.459Z,19.40
2019-05-12T22:12:05.638Z,22.00
2019-05-12T22:14:36.649Z,22.17
2019-05-12T22:17:07.752Z,22.22
2019-05-12T22:19:38.161Z,20.97
2019-05-12T22:22:19.532Z,22.67
2019-05-12T22:24:50.256Z,21.93
2019-05-12T22:27:22.869Z,22.73
2019-05-12T22:29:53.475Z,24.05
2019-05-12T22:32:25.417Z,23.77
2019-05-12T22:34:54.584Z,23.90
2019-05-12T22:37:24.048Z,24.47
2019-05-12T22:39:53.575Z,22.80
2019-05-12T22:42:24.571Z,22.98
2019-05-12T22:45:01.469Z,24.77
2019-05-12T22:47:25.628Z,24.37
2019-05-12T22:49:57.087Z,23.77
2019-05-12T22:52:28.105Z,23.45
2019-05-12T22:54:57.560Z,23.30
2019-05-12T22:57:29.171Z,25.23
2019-05-12T23:00:03.827Z,26.27
2019-05-12T23:02:33.778Z,26.50
2019-05-12T23:05:10.174Z,27.57
2019-05-12T23:07:36.053Z,28.97
2019-05-12T23:10:10.989Z,31.67
2019-05-12T23:12:38.466Z,32.50
2019-05-12T23:15:08.665Z,33.90
2019-05-12T23:17:39.028Z,33.65
2019-05-12T23:20:10.365Z,34.92
2019-05-12T23:22:41.109Z,32.67
2019-05-12T23:25:11.426Z,30.13
2019-05-12T23:27:44.199Z,29.40
2019-05-12T23:30:15.903Z,29.13
2019-05-12T23:32:51.397Z,29.33
2019-05-12T23:35:20.826Z,29.82
2019-05-12T23:37:50.314Z,29.00
2019-05-12T23:40:20.020Z,28.80
2019-05-12T23:42:49.468Z,30.80
2019-05-12T23:45:19.076Z,30.47
2019-05-12T23:47:48.588Z,26.60
2019-05-12T23:50:19.125Z,27.75
2019-05-12T23:52:57.655Z,27.90
2019-05-12T23:55:28.684Z,28.37
2019-05-12T23:58:00.582Z,29.25
